Time,TemperatureF,DewpointF,PressureIn,WindDirection,WindDirectionDegrees,WindSpeedMPH,WindSpeedGustMPH,Humidity,HourlyPrecipIn,Conditions,Clouds,dailyrainin,SoftwareType,DateUTC
2013-06-27 00:03:00,57.3,53.8,29.99,NE,38,0.0,0.0,88,0.00,CLR,SKC,0.00,WeatherDisplay:10.37,2013-06-27 06:03:00,
2013-06-27 00:08:00,57.3,53.8,29.99,NE,38,0.0,0.0,88,0.00,CLR,SKC,0.00,WeatherDisplay:10.37,2013-06-27 06:08:00,
2013-06-27 00:13:00,57.1,53.6,30.00,NE,38,0.0,0.0,88,0.00,CLR,SKC,0.00,WeatherDisplay:10.37,2013-06-27 06:13:00,
2013-06-27 00:18:00,56.9,53.7,30.00,NE,38,0.0,0.0,89,0.00,CLR,SKC,0.00,WeatherDisplay:10.37,2013-06-27 06:18:00,
2013-06-27 00:24:00,56.8,53.6,30.00,NE,38,0.0,0.0,89,0.00,CLR,SKC,0.00,WeatherDisplay:10.37,2013-06-27 06:24:00,
2013-06-27 00:30:00,56.6,53.4,30.00,NE,38,0.0,0.0,89,0.00,CLR,SKC,0.00,WeatherDisplay:10.37,2013-06-27 06:30:00,
2013-06-27 00:35:00,56.5,53.3,30.00,NE,38,0.0,0.0,89,0.00,CLR,SKC,0.00,WeatherDisplay:10.37,2013-06-27 06:35:00,
2013-06-27 00:40:00,56.4,53.2,30.00,NE,38,0.0,0.0,89,0.00,CLR,SKC,0.00,WeatherDisplay:10.37,2013-06-27 06:40:00,
2013-06-27 00:46:00,56.4,53.5,30.00,NE,38,0.0,0.0,90,0.00,CLR,SKC,0.00,WeatherDisplay:10.37,2013-06-27 06:46:00,
2013-06-27 00:51:00,56.3,53.7,30.00,NE,38,0.0,0.0,91,0.00,CLR,SKC,0.00,WeatherDisplay:10.37,2013-06-27 06:51:00,
2013-06-27 00:56:00,56.2,53.6,30.01,NE,38,0.0,0.0,91,0.00,CLR,SKC,0.00,WeatherDisplay:10.37,2013-06-27 06:56:00,
2013-06-27 01:01:00,56.1,53.8,30.00,NE,38,0.0,0.0,92,0.00,CLR,SKC,0.00,WeatherDisplay:10.37,2013-06-27 07:01:00,
2013-06-27 01:06:00,56.0,53.7,30.01,NE,38,0.0,0.0,92,0.00,CLR,SKC,0.00,WeatherDisplay:10.37,2013-06-27 07:06:00,
2013-06-27 01:11:00,56.0,53.7,30.00,NE,38,0.0,0.0,92,0.00,CLR,SKC,0.00,WeatherDisplay:10.37,2013-06-27 07:11:00,
2013-06-27 01:16:00,55.9,53.6,30.00,NE,38,0.0,0.0,92,0.00,CLR,SKC,0.00,WeatherDisplay:10.37,2013-06-27 07:16:00,
2013-06-27 01:21:00,55.9,53.6,30.00,NE,38,0.0,0.0,92,0.01,RA,SKC,0.01,WeatherDisplay:10.37,2013-06-27 07:21:00,
2013-06-27 01:26:00,55.8,53.5,30.00,NE,38,0.0,0.0,92,0.01,RA,SKC,0.01,WeatherDisplay:10.37,2013-06-27 07:26:00,
2013-06-27 01:31:00,55.7,53.4,30.00,NE,38,0.0,0.0,92,0.01,CLR,SKC,0.01,WeatherDisplay:10.37,2013-06-27 07:31:00,
2013-06-27 01:37:00,55.5,53.2,30.00,NE,38,0.0,0.0,92,0.01,CLR,SKC,0.01,WeatherDisplay:10.37,2013-06-27 07:37:00,
2013-06-27 01:42:00,55.4,53.1,30.01,NE,38,0.0,0.0,92,0.01,CLR,SKC,0.01,WeatherDisplay:10.37,2013-06-27 07:42:00,
2013-06-27 01:47:00,55.3,53.0,30.01,NE,38,0.0,0.0,92,0.01,CLR,SKC,0.01,WeatherDisplay:10.37,2013-06-27 07:47:00,
2013-06-27 01:52:00,55.4,53.1,30.00,WNW,302,1.1,1.1,92,0.01,CLR,SKC,0.01,WeatherDisplay:10.37,2013-06-27 07:52:00,
2013-06-27 01:57:00,55.5,53.2,30.00,SW,215,0.0,0.3,92,0.01,CLR,SKC,0.01,WeatherDisplay:10.37,2013-06-27 07:57:00,
2013-06-27 02:02:00,55.6,53.3,30.00,SW,215,0.0,0.0,92,0.01,CLR,SKC,0.01,WeatherDisplay:10.37,2013-06-27 08:02:00,
2013-06-27 02:07:00,55.7,53.4,30.00,SW,215,0.0,0.0,92,0.01,CLR,SKC,0.01,WeatherDisplay:10.37,2013-06-27 08:07:00,
2013-06-27 02:12:00,55.7,53.1,30.00,SW,215,0.0,0.0,91,0.01,CLR,SKC,0.01,WeatherDisplay:10.37,2013-06-27 08:12:00,
2013-06-27 02:18:00,55.6,53.0,30.00,SW,215,0.0,0.0,91,0.00,CLR,SKC,0.01,WeatherDisplay:10.37,2013-06-27 08:18:00,
2013-06-27 02:23:00,55.3,52.7,30.00,SW,215,0.0,0.0,91,0.00,CLR,SKC,0.01,WeatherDisplay:10.37,2013-06-27 08:23:00,
2013-06-27 02:28:00,55.0,52.7,30.00,SW,215,0.0,0.0,92,0.00,CLR,SKC,0.01,WeatherDisplay:10.37,2013-06-27 08:28:00,
2013-06-27 02:33:00,54.8,52.5,30.00,SW,215,0.0,0.0,92,0.00,CLR,SKC,0.01,WeatherDisplay:10.37,2013-06-27 08:33:00,
2013-06-27 02:38:00,54.8,52.8,30.00,SW,215,0.0,0.0,93,0.00,CLR,SKC,0.01,WeatherDisplay:10.37,2013-06-27 08:38:00,
2013-06-27 02:43:00,54.6,52.6,30.01,SW,215,0.0,0.0,93,0.00,CLR,SKC,0.01,WeatherDisplay:10.37,2013-06-27 08:43:00,
2013-06-27 02:48:00,54.5,52.5,30.01,SW,215,0.0,0.0,93,0.00,CLR,SKC,0.01,WeatherDisplay:10.37,2013-06-27 08:48:00,
2013-06-27 02:53:00,54.4,52.4,30.01,SW,215,0.0,0.0,93,0.00,CLR,SKC,0.01,WeatherDisplay:10.37,2013-06-27 08:53:00,
2013-06-27 02:58:00,54.4,52.4,30.01,SW,215,0.0,0.0,93,0.00,CLR,SKC,0.01,WeatherDisplay:10.37,2013-06-27 08:58:00,
2013-06-27 03:03:00,54.2,51.9,30.01,SW,215,0.0,0.0,92,0.00,CLR,SKC,0.01,WeatherDisplay:10.37,2013-06-27 09:03:00,
2013-06-27 03:08:00,54.1,52.1,30.01,SW,215,0.0,0.0,93,0.00,CLR,SKC,0.01,WeatherDisplay:10.37,2013-06-27 09:08:00,
2013-06-27 03:13:00,54.1,52.1,30.01,SW,215,0.0,0.0,93,0.00,CLR,SKC,0.01,WeatherDisplay:10.37,2013-06-27 09:13:00,
2013-06-27 03:18:00,54.0,52.0,30.01,SW,215,0.0,0.0,93,0.00,CLR,SKC,0.01,WeatherDisplay:10.37,2013-06-27 09:18:00,
2013-06-27 03:23:00,53.9,51.9,30.01,SW,215,0.0,0.0,93,0.00,CLR,SKC,0.01,WeatherDisplay:10.37,2013-06-27 09:23:00,
2013-06-27 03:28:00,53.8,51.8,30.01,SW,215,0.0,0.0,93,0.00,CLR,SKC,0.01,WeatherDisplay:10.37,2013-06-27 09:28:00,
2013-06-27 03:33:00,53.8,51.8,30.01,SW,215,0.0,0.0,93,0.00,CLR,SKC,0.01,WeatherDisplay:10.37,2013-06-27 09:33:00,
2013-06-27 03:38:00,53.7,51.7,30.01,SW,215,0.0,0.0,93,0.00,CLR,SKC,0.01,WeatherDisplay:10.37,2013-06-27 09:38:00,
2013-06-27 03:43:00,53.8,51.8,30.01,SW,215,0.0,0.0,93,0.00,CLR,SKC,0.01,WeatherDisplay:10.37,2013-06-27 09:43:00,
2013-06-27 03:48:00,53.8,51.8,30.01,SW,215,0.0,0.0,93,0.00,CLR,SKC,0.01,WeatherDisplay:10.37,2013-06-27 09:48:00,
2013-06-27 03:53:00,53.7,51.7,30.01,SW,215,0.0,0.0,93,0.00,CLR,SKC,0.01,WeatherDisplay:10.37,2013-06-27 09:53:00,
2013-06-27 03:58:00,53.6,51.6,30.01,SW,215,0.0,0.0,93,0.00,CLR,SKC,0.01,WeatherDisplay:10.37,2013-06-27 09:58:00,
2013-06-27 04:03:00,53.6,51.9,30.01,SW,215,0.0,0.0,94,0.00,CLR,SKC,0.01,WeatherDisplay:10.37,2013-06-27 10:03:00,
2013-06-27 04:08:00,53.5,51.5,30.01,SW,215,0.0,0.0,93,0.00,CLR,SKC,0.01,WeatherDisplay:10.37,2013-06-27 10:08:00,
2013-06-27 04:13:00,53.1,51.1,30.01,SW,215,0.0,0.0,93,0.00,CLR,SKC,0.01,WeatherDisplay:10.37,2013-06-27 10:13:00,
2013-06-27 04:18:00,52.9,50.9,30.01,SW,215,0.0,0.0,93,0.00,CLR,SKC,0.01,WeatherDisplay:10.37,2013-06-27 10:18:00,
2013-06-27 04:23:00,52.7,50.7,30.01,SW,215,0.0,0.0,93,0.00,CLR,SKC,0.01,WeatherDisplay:10.37,2013-06-27 10:23:00,
2013-06-27 04:28:00,52.3,50.3,30.01,SW,215,0.0,0.0,93,0.00,CLR,SKC,0.01,WeatherDisplay:10.37,2013-06-27 10:28:00,
2013-06-27 04:33:00,52.0,50.0,30.01,SW,215,0.0,0.0,93,0.00,RA,SKC,0.01,WeatherDisplay:10.37,2013-06-27 10:33:00,
2013-06-27 04:39:00,51.8,49.8,30.01,SW,215,0.0,0.0,93,0.00,RA,SKC,0.01,WeatherDisplay:10.37,2013-06-27 10:39:00,
2013-06-27 04:44:00,51.6,49.6,30.01,SW,215,0.0,0.0,93,0.00,CLR,SKC,0.01,WeatherDisplay:10.37,2013-06-27 10:44:00,
2013-06-27 04:50:00,51.3,49.3,30.01,SW,215,0.0,0.0,93,0.00,CLR,SKC,0.01,WeatherDisplay:10.37,2013-06-27 10:50:00,
2013-06-27 04:55:00,51.1,49.4,30.02,SW,215,0.0,0.0,94,0.00,CLR,SKC,0.01,WeatherDisplay:10.37,2013-06-27 10:55:00,
2013-06-27 05:00:00,50.9,48.9,30.02,SW,215,0.0,0.0,93,0.00,CLR,SKC,0.01,WeatherDisplay:10.37,2013-06-27 11:00:00,
2013-06-27 05:05:00,50.8,49.1,30.02,SW,215,0.0,0.0,94,0.00,CLR,SKC,0.01,WeatherDisplay:10.37,2013-06-27 11:05:00,
2013-06-27 05:10:00,50.8,49.1,30.02,SW,215,0.0,0.0,94,0.00,CLR,SKC,0.01,WeatherDisplay:10.37,2013-06-27 11:10:00,
2013-06-27 05:15:00,50.7,49.0,30.02,SW,215,0.0,0.0,94,0.00,CLR,SKC,0.01,WeatherDisplay:10.37,2013-06-27 11:15:00,
2013-06-27 05:20:00,50.6,48.9,30.02,SW,215,0.0,0.0,94,0.00,CLR,SKC,0.01,WeatherDisplay:10.37,2013-06-27 11:20:00,
2013-06-27 05:25:00,50.4,48.7,30.02,SW,215,0.0,0.0,94,0.00,CLR,SKC,0.01,WeatherDisplay:10.37,2013-06-27 11:25:00,
2013-06-27 05:30:00,50.3,48.6,30.02,SW,215,0.0,0.0,94,0.00,CLR,SKC,0.01,WeatherDisplay:10.37,2013-06-27 11:30:00,
2013-06-27 05:35:00,50.1,48.4,30.02,SW,215,0.0,0.0,94,0.00,CLR,SKC,0.01,WeatherDisplay:10.37,2013-06-27 11:35:00,
2013-06-27 05:40:00,49.8,48.1,30.02,SW,215,0.0,0.0,94,0.00,CLR,SKC,0.01,WeatherDisplay:10.37,2013-06-27 11:40:00,
2013-06-27 05:45:00,49.8,48.1,30.03,SW,215,0.0,0.0,94,0.00,CLR,SKC,0.01,WeatherDisplay:10.37,2013-06-27 11:45:00,
2013-06-27 05:50:00,49.8,48.1,30.03,SW,215,0.0,0.0,94,0.00,CLR,SKC,0.01,WeatherDisplay:10.37,2013-06-27 11:50:00,
2013-06-27 05:55:00,49.8,48.1,30.03,SW,215,0.0,0.0,94,0.00,CLR,SKC,0.01,WeatherDisplay:10.37,2013-06-27 11:55:00,
2013-06-27 06:01:00,49.8,48.4,30.04,SW,215,0.0,0.0,95,0.00,CLR,SKC,0.01,WeatherDisplay:10.37,2013-06-27 12:01:00,
2013-06-27 06:06:00,49.9,48.5,30.04,SW,215,0.0,0.0,95,0.00,CLR,SKC,0.01,WeatherDisplay:10.37,2013-06-27 12:06:00,
2013-06-27 06:11:00,50.0,48.6,30.04,SW,215,0.0,0.0,95,0.00,CLR,SKC,0.01,WeatherDisplay:10.37,2013-06-27 12:11:00,
2013-06-27 06:16:00,49.9,48.5,30.04,SW,215,0.0,0.0,95,0.00,CLR,SKC,0.01,WeatherDisplay:10.37,2013-06-27 12:16:00,
2013-06-27 06:21:00,49.8,48.4,30.04,SW,215,0.0,0.0,95,0.00,CLR,SKC,0.01,WeatherDisplay:10.37,2013-06-27 12:21:00,
2013-06-27 06:26:00,49.7,48.3,30.04,SW,215,0.0,0.0,95,0.00,CLR,SKC,0.01,WeatherDisplay:10.37,2013-06-27 12:26:00,
2013-06-27 06:31:00,49.6,48.2,30.04,SW,215,0.0,0.0,95,0.00,CLR,SKC,0.01,WeatherDisplay:10.37,2013-06-27 12:31:00,
2013-06-27 06:36:00,49.6,48.2,30.04,SW,215,0.0,0.0,95,0.00,CLR,SKC,0.01,WeatherDisplay:10.37,2013-06-27 12:36:00,
2013-06-27 06:41:00,49.6,48.2,30.04,SW,215,0.0,0.0,95,0.00,CLR,SKC,0.01,WeatherDisplay:10.37,2013-06-27 12:41:00,
2013-06-27 06:46:00,49.6,48.2,30.04,SW,215,0.0,0.0,95,0.00,CLR,SKC,0.01,WeatherDisplay:10.37,2013-06-27 12:46:00,
2013-06-27 06:51:00,49.7,48.3,30.04,SW,215,0.0,0.0,95,0.00,CLR,SKC,0.01,WeatherDisplay:10.37,2013-06-27 12:51:00,
2013-06-27 06:57:00,49.7,48.6,30.05,SW,215,0.0,0.0,96,0.00,CLR,SKC,0.01,WeatherDisplay:10.37,2013-06-27 12:57:00,
2013-06-27 07:02:00,49.9,48.8,30.04,SW,215,0.0,0.0,96,0.00,CLR,SKC,0.01,WeatherDisplay:10.37,2013-06-27 13:02:00,
2013-06-27 07:07:00,50.2,49.1,30.05,SW,215,0.0,0.0,96,0.00,CLR,SKC,0.01,WeatherDisplay:10.37,2013-06-27 13:07:00,
2013-06-27 07:13:00,50.6,49.5,30.05,SW,215,0.0,0.0,96,0.00,CLR,SKC,0.01,WeatherDisplay:10.37,2013-06-27 13:13:00,
2013-06-27 07:18:00,50.9,49.8,30.05,SW,215,0.0,0.0,96,0.00,CLR,SKC,0.01,WeatherDisplay:10.37,2013-06-27 13:18:00,
2013-06-27 07:23:00,51.2,50.1,30.05,SW,215,0.0,0.0,96,0.00,CLR,SKC,0.01,WeatherDisplay:10.37,2013-06-27 13:23:00,
2013-06-27 07:28:00,51.7,50.6,30.05,SW,215,0.0,0.0,96,0.00,CLR,SKC,0.01,WeatherDisplay:10.37,2013-06-27 13:28:00,
2013-06-27 07:33:00,52.2,51.4,30.05,SW,215,0.0,0.0,97,0.00,CLR,SKC,0.01,WeatherDisplay:10.37,2013-06-27 13:33:00,
2013-06-27 07:38:00,52.6,51.8,30.05,SW,215,0.0,0.0,97,0.00,CLR,SKC,0.01,WeatherDisplay:10.37,2013-06-27 13:38:00,
2013-06-27 07:43:00,53.0,52.2,30.05,SW,215,0.0,0.0,97,0.00,CLR,SKC,0.01,WeatherDisplay:10.37,2013-06-27 13:43:00,
2013-06-27 07:48:00,53.3,52.5,30.06,SW,215,0.0,0.0,97,0.00,CLR,SKC,0.01,WeatherDisplay:10.37,2013-06-27 13:48:00,
2013-06-27 07:54:00,53.6,52.8,30.06,SW,215,0.0,0.0,97,0.00,CLR,SKC,0.01,WeatherDisplay:10.37,2013-06-27 13:54:00,
2013-06-27 07:59:00,53.9,53.1,30.06,SW,215,0.0,0.0,97,0.00,CLR,SKC,0.01,WeatherDisplay:10.37,2013-06-27 13:59:00,
2013-06-27 08:04:00,54.2,53.1,30.06,SW,215,0.0,0.0,96,0.00,CLR,SKC,0.01,WeatherDisplay:10.37,2013-06-27 14:04:00,
2013-06-27 08:09:00,54.5,53.4,30.06,SW,215,0.0,0.0,96,0.00,CLR,SKC,0.01,WeatherDisplay:10.37,2013-06-27 14:09:00,
2013-06-27 08:14:00,54.8,53.7,30.06,SW,215,0.0,0.0,96,0.00,CLR,SKC,0.01,WeatherDisplay:10.37,2013-06-27 14:14:00,
2013-06-27 08:19:00,55.0,53.6,30.06,SW,215,0.0,1.0,95,0.00,CLR,SKC,0.01,WeatherDisplay:10.37,2013-06-27 14:19:00,
2013-06-27 08:24:00,55.1,53.1,30.06,SSW,204,1.1,1.1,93,0.00,CLR,SKC,0.01,WeatherDisplay:10.37,2013-06-27 14:24:00,
2013-06-27 08:29:00,55.3,53.3,30.06,SSW,204,0.0,0.0,93,0.00,CLR,SKC,0.01,WeatherDisplay:10.37,2013-06-27 14:29:00,
2013-06-27 08:34:00,55.6,53.6,30.06,SSW,204,0.0,0.0,93,0.00,CLR,SKC,0.01,WeatherDisplay:10.37,2013-06-27 14:34:00,
2013-06-27 08:39:00,55.7,53.1,30.06,South,190,1.1,1.1,91,0.00,CLR,SKC,0.01,WeatherDisplay:10.37,2013-06-27 14:39:00,
2013-06-27 08:44:00,56.1,53.2,30.06,South,190,0.0,0.0,90,0.00,CLR,SKC,0.01,WeatherDisplay:10.37,2013-06-27 14:44:00,
2013-06-27 08:49:00,56.5,53.6,30.06,South,190,1.1,1.1,90,0.00,CLR,SKC,0.01,WeatherDisplay:10.37,2013-06-27 14:49:00,
2013-06-27 08:54:00,56.8,53.6,30.06,South,190,0.0,0.0,89,0.00,CLR,SKC,0.01,WeatherDisplay:10.37,2013-06-27 14:54:00,
2013-06-27 09:00:00,57.3,53.8,30.06,ESE,115,0.0,0.0,88,0.00,CLR,SKC,0.01,WeatherDisplay:10.37,2013-06-27 15:00:00,
2013-06-27 09:05:00,57.7,53.9,30.06,ESE,115,0.0,0.0,87,0.00,CLR,SKC,0.01,WeatherDisplay:10.37,2013-06-27 15:05:00,
2013-06-27 09:11:00,58.2,54.3,30.07,ESE,115,0.0,0.0,87,0.00,CLR,SKC,0.01,WeatherDisplay:10.37,2013-06-27 15:11:00,
2013-06-27 09:16:00,58.6,54.4,30.07,ESE,115,0.0,0.0,86,0.00,CLR,SKC,0.01,WeatherDisplay:10.37,2013-06-27 15:16:00,
2013-06-27 09:21:00,58.9,54.4,30.07,SSE,151,0.0,0.0,85,0.00,CLR,SKC,0.01,WeatherDisplay:10.37,2013-06-27 15:21:00,
2013-06-27 09:26:00,59.1,54.3,30.07,SSE,151,0.0,0.1,84,0.00,CLR,SKC,0.01,WeatherDisplay:10.37,2013-06-27 15:26:00,
2013-06-27 09:31:00,59.4,54.2,30.07,ESE,112,0.0,0.0,83,0.00,CLR,SKC,0.01,WeatherDisplay:10.37,2013-06-27 15:31:00,
2013-06-27 09:36:00,59.8,54.6,30.07,ESE,112,0.0,0.0,83,0.00,CLR,SKC,0.01,WeatherDisplay:10.37,2013-06-27 15:36:00,
2013-06-27 09:41:00,60.2,54.7,30.07,ESE,112,1.1,1.1,82,0.00,CLR,SKC,0.01,WeatherDisplay:10.37,2013-06-27 15:41:00,
2013-06-27 09:46:00,60.6,55.1,30.07,ESE,112,0.0,0.0,82,0.00,CLR,SKC,0.01,WeatherDisplay:10.37,2013-06-27 15:46:00,
2013-06-27 09:51:00,61.0,55.1,30.06,East,98,0.0,0.0,81,0.00,CLR,SKC,0.01,WeatherDisplay:10.37,2013-06-27 15:51:00,
2013-06-27 09:56:00,61.5,54.9,30.06,East,90,2.3,0.0,79,0.00,CLR,SKC,0.01,WeatherDisplay:10.37,2013-06-27 15:56:00,
2013-06-27 10:01:00,61.8,55.6,30.06,East,90,0.0,0.0,80,0.00,CLR,SKC,0.01,WeatherDisplay:10.37,2013-06-27 16:01:00,
2013-06-27 10:06:00,62.3,56.4,30.06,East,90,1.1,0.0,81,0.00,CLR,SKC,0.01,WeatherDisplay:10.37,2013-06-27 16:06:00,
2013-06-27 10:11:00,62.6,55.3,30.06,East,90,0.0,0.0,77,0.00,CLR,SKC,0.01,WeatherDisplay:10.37,2013-06-27 16:11:00,
2013-06-27 10:16:00,63.1,55.4,30.06,East,86,1.1,0.0,76,0.00,CLR,SKC,0.01,WeatherDisplay:10.37,2013-06-27 16:16:00,
2013-06-27 10:21:00,63.4,55.0,30.06,East,83,1.1,1.1,74,0.00,CLR,SKC,0.01,WeatherDisplay:10.37,2013-06-27 16:21:00,
2013-06-27 10:26:00,63.7,55.6,30.05,East,83,0.0,0.0,75,0.00,CLR,SKC,0.01,WeatherDisplay:10.37,2013-06-27 16:26:00,
2013-06-27 10:32:00,64.1,56.4,30.05,SSE,161,1.1,1.2,76,0.00,CLR,SKC,0.01,WeatherDisplay:10.37,2013-06-27 16:32:00,
2013-06-27 10:37:00,64.6,56.1,30.05,SSE,159,0.0,0.3,74,0.00,CLR,SKC,0.01,WeatherDisplay:10.37,2013-06-27 16:37:00,
2013-06-27 10:42:00,65.0,55.8,30.04,North,5,2.0,2.0,72,0.00,CLR,SKC,0.01,WeatherDisplay:10.37,2013-06-27 16:42:00,
2013-06-27 10:47:00,65.3,56.0,30.05,NNE,13,0.0,0.2,72,0.00,CLR,SKC,0.01,WeatherDisplay:10.37,2013-06-27 16:47:00,
2013-06-27 10:52:00,65.6,55.9,30.05,NNE,23,0.0,0.0,71,0.00,CLR,SKC,0.01,WeatherDisplay:10.37,2013-06-27 16:52:00,
2013-06-27 10:58:00,66.0,56.7,30.04,NNE,23,0.0,0.0,72,0.00,CLR,SKC,0.01,WeatherDisplay:10.37,2013-06-27 16:58:00,
2013-06-27 11:03:00,66.5,56.4,30.04,ENE,67,0.0,0.0,70,0.00,CLR,SKC,0.01,WeatherDisplay:10.37,2013-06-27 17:03:00,
2013-06-27 11:08:00,66.7,56.2,30.04,SSE,149,0.0,3.0,69,0.00,CLR,SKC,0.01,WeatherDisplay:10.37,2013-06-27 17:08:00,
2013-06-27 11:14:00,66.7,55.8,30.04,South,171,2.3,2.3,68,0.00,CLR,SKC,0.01,WeatherDisplay:10.37,2013-06-27 17:14:00,
2013-06-27 11:20:00,66.8,55.5,30.04,ENE,73,1.1,1.1,67,0.00,CLR,SKC,0.01,WeatherDisplay:10.37,2013-06-27 17:20:00,
2013-06-27 11:25:00,67.4,57.3,30.04,ENE,68,1.1,1.1,70,0.00,CLR,SKC,0.01,WeatherDisplay:10.37,2013-06-27 17:25:00,
2013-06-27 11:30:00,67.8,57.3,30.04,ENE,74,1.1,1.1,69,0.00,CLR,SKC,0.01,WeatherDisplay:10.37,2013-06-27 17:30:00,
2013-06-27 11:35:00,68.3,57.7,30.04,East,86,1.0,0.0,69,0.00,CLR,SKC,0.01,WeatherDisplay:10.37,2013-06-27 17:35:00,
2013-06-27 11:41:00,69.1,57.7,30.04,ENE,61,2.3,2.3,67,0.00,CLR,SKC,0.01,WeatherDisplay:10.37,2013-06-27 17:41:00,
2013-06-27 11:46:00,69.4,57.5,30.04,ENE,62,1.1,0.0,66,0.00,CLR,SKC,0.01,WeatherDisplay:10.37,2013-06-27 17:46:00,
2013-06-27 11:51:00,69.7,58.7,30.03,SE,135,2.0,2.0,68,0.00,CLR,SKC,0.01,WeatherDisplay:10.37,2013-06-27 17:51:00,
2013-06-27 11:56:00,70.1,57.8,30.03,NE,35,1.1,1.1,65,0.00,CLR,SKC,0.01,WeatherDisplay:10.37,2013-06-27 17:56:00,
2013-06-27 12:02:00,70.2,57.4,30.03,South,173,2.3,2.3,64,0.00,CLR,SKC,0.01,WeatherDisplay:10.37,2013-06-27 18:02:00,
2013-06-27 12:07:00,70.4,57.6,30.03,SSE,149,1.1,0.0,64,0.00,CLR,SKC,0.01,WeatherDisplay:10.37,2013-06-27 18:07:00,
2013-06-27 12:12:00,70.7,57.0,30.03,SW,227,3.5,3.5,62,0.00,CLR,SKC,0.01,WeatherDisplay:10.37,2013-06-27 18:12:00,
2013-06-27 12:17:00,70.7,57.0,30.03,WSW,237,1.1,1.1,62,0.00,CLR,SKC,0.01,WeatherDisplay:10.37,2013-06-27 18:17:00,
2013-06-27 12:22:00,70.7,56.1,30.02,West,265,1.1,0.0,60,0.00,CLR,SKC,0.01,WeatherDisplay:10.37,2013-06-27 18:22:00,
2013-06-27 12:27:00,71.1,56.5,30.02,SSE,160,1.1,0.0,60,0.00,CLR,SKC,0.01,WeatherDisplay:10.37,2013-06-27 18:27:00,
2013-06-27 12:33:00,71.5,56.9,30.02,WSW,246,3.5,3.5,60,0.00,CLR,SKC,0.01,WeatherDisplay:10.37,2013-06-27 18:33:00,
2013-06-27 12:39:00,71.7,57.1,30.02,WSW,257,0.0,0.0,60,0.00,CLR,SKC,0.01,WeatherDisplay:10.37,2013-06-27 18:39:00,
2013-06-27 12:44:00,72.1,57.0,30.02,SSE,167,1.1,1.1,59,0.00,CLR,SKC,0.01,WeatherDisplay:10.37,2013-06-27 18:44:00,
2013-06-27 12:49:00,72.8,57.6,30.01,South,183,1.0,1.0,59,0.00,CLR,SKC,0.01,WeatherDisplay:10.37,2013-06-27 18:49:00,
2013-06-27 12:54:00,73.1,58.4,30.01,South,190,1.1,1.1,60,0.00,CLR,SKC,0.01,WeatherDisplay:10.37,2013-06-27 18:54:00,
2013-06-27 12:58:00,73.5,57.8,30.01,SSE,162,2.3,2.3,58,0.00,CLR,SKC,0.01,WeatherDisplay:10.37,2013-06-27 18:58:00,
2013-06-27 13:03:00,74.0,58.8,30.01,WSW,250,1.1,1.1,59,0.00,CLR,SKC,0.01,WeatherDisplay:10.37,2013-06-27 19:03:00,
2013-06-27 13:04:00,74.0,58.7,30.01,South,183,0.0,2.0,59,0.00,CLR,SKC,0.01,WeatherDisplay:10.37,2013-06-27 19:04:00,
2013-06-27 13:09:00,74.4,58.7,30.01,SSW,205,1.0,4.0,58,0.00,CLR,SKC,0.01,WeatherDisplay:10.37,2013-06-27 19:09:00,
2013-06-27 13:14:00,74.9,58.6,30.01,SSE,163,1.1,0.0,57,0.00,CLR,SKC,0.01,WeatherDisplay:10.37,2013-06-27 19:14:00,
2013-06-27 13:19:00,75.3,58.0,30.00,WSW,240,4.0,4.0,55,0.00,CLR,SKC,0.01,WeatherDisplay:10.37,2013-06-27 19:19:00,
2013-06-27 13:24:00,75.5,59.2,30.00,South,186,2.3,2.3,57,0.00,CLR,SKC,0.01,WeatherDisplay:10.37,2013-06-27 19:24:00,
2013-06-27 13:30:00,75.7,58.4,30.00,South,169,2.3,2.3,55,0.00,CLR,SKC,0.01,WeatherDisplay:10.37,2013-06-27 19:30:00,
2013-06-27 13:35:00,76.2,59.4,29.99,SW,219,1.1,1.1,56,0.00,CLR,SKC,0.01,WeatherDisplay:10.37,2013-06-27 19:35:00,
2013-06-27 13:40:00,76.7,56.7,29.99,SW,234,4.6,4.6,50,0.00,CLR,SKC,0.01,WeatherDisplay:10.37,2013-06-27 19:40:00,
2013-06-27 13:45:00,77.0,57.5,29.99,ESE,122,2.0,2.0,51,0.00,CLR,SKC,0.01,WeatherDisplay:10.37,2013-06-27 19:45:00,
2013-06-27 13:50:00,77.5,56.8,29.99,South,176,2.3,2.3,49,0.00,CLR,SKC,0.01,WeatherDisplay:10.37,2013-06-27 19:50:00,
2013-06-27 13:56:00,78.0,57.9,29.98,SSE,150,1.1,1.1,50,0.00,CLR,SKC,0.01,WeatherDisplay:10.37,2013-06-27 19:56:00,
2013-06-27 14:01:00,78.3,57.0,29.98,SSW,194,1.1,1.1,48,0.00,CLR,SKC,0.01,WeatherDisplay:10.37,2013-06-27 20:01:00,
2013-06-27 14:06:00,78.7,56.8,29.98,SW,217,3.5,3.5,47,0.00,CLR,SKC,0.01,WeatherDisplay:10.37,2013-06-27 20:06:00,
2013-06-27 14:11:00,78.8,56.3,29.98,SW,227,3.5,3.5,46,0.00,CLR,SKC,0.01,WeatherDisplay:10.37,2013-06-27 20:11:00,
2013-06-27 14:16:00,79.3,56.7,29.98,SSE,164,2.3,2.3,46,0.00,CLR,SKC,0.01,WeatherDisplay:10.37,2013-06-27 20:16:00,
2013-06-27 14:21:00,79.6,54.5,29.97,SW,214,4.6,4.6,42,0.00,CLR,SKC,0.01,WeatherDisplay:10.37,2013-06-27 20:21:00,
2013-06-27 14:26:00,79.6,53.8,29.97,WSW,250,2.3,2.3,41,0.00,CLR,SKC,0.01,WeatherDisplay:10.37,2013-06-27 20:26:00,
2013-06-27 14:31:00,79.9,54.8,29.97,South,183,3.5,3.5,42,0.00,CLR,SKC,0.01,WeatherDisplay:10.37,2013-06-27 20:31:00,
2013-06-27 14:37:00,80.1,54.3,29.97,SW,234,5.8,5.8,41,0.00,CLR,SKC,0.01,WeatherDisplay:10.37,2013-06-27 20:37:00,
2013-06-27 14:42:00,80.5,54.0,29.97,WSW,247,3.5,3.5,40,0.00,CLR,SKC,0.01,WeatherDisplay:10.37,2013-06-27 20:42:00,
2013-06-27 14:49:00,81.0,54.4,29.96,South,186,0.0,2.0,40,0.00,CLR,SKC,0.01,WeatherDisplay:10.37,2013-06-27 20:49:00,
2013-06-27 14:54:00,81.7,54.3,29.96,SW,232,2.3,2.3,39,0.00,CLR,SKC,0.01,WeatherDisplay:10.37,2013-06-27 20:54:00,
2013-06-27 14:59:00,81.6,54.2,29.96,WSW,243,3.5,3.5,39,0.00,CLR,SKC,0.01,WeatherDisplay:10.37,2013-06-27 20:59:00,
2013-06-27 15:04:00,82.2,54.1,29.96,ESE,123,2.3,2.3,38,0.00,CLR,SKC,0.01,WeatherDisplay:10.37,2013-06-27 21:04:00,
2013-06-27 15:10:00,82.7,53.8,29.96,SE,126,2.3,2.3,37,0.00,CLR,SKC,0.01,WeatherDisplay:10.37,2013-06-27 21:10:00,
2013-06-27 15:15:00,82.8,55.3,29.96,SW,226,2.3,2.3,39,0.00,CLR,SKC,0.01,WeatherDisplay:10.37,2013-06-27 21:15:00,
2013-06-27 15:21:00,82.6,56.5,29.96,South,188,2.0,2.0,41,0.00,CLR,SKC,0.01,WeatherDisplay:10.37,2013-06-27 21:21:00,
2013-06-27 15:26:00,83.0,54.0,29.95,SE,140,2.3,0.0,37,0.00,CLR,SKC,0.01,WeatherDisplay:10.37,2013-06-27 21:26:00,
2013-06-27 15:32:00,83.4,55.8,29.95,WSW,241,2.3,2.3,39,0.00,CLR,SKC,0.01,WeatherDisplay:10.37,2013-06-27 21:32:00,
2013-06-27 15:37:00,83.1,54.1,29.95,South,178,2.0,2.0,37,0.00,CLR,SKC,0.01,WeatherDisplay:10.37,2013-06-27 21:37:00,
2013-06-27 15:43:00,83.4,55.1,29.95,SW,222,0.0,0.0,38,0.00,CLR,SKC,0.01,WeatherDisplay:10.37,2013-06-27 21:43:00,
2013-06-27 15:48:00,84.0,54.2,29.95,SSE,166,0.0,3.0,36,0.00,CLR,SKC,0.01,WeatherDisplay:10.37,2013-06-27 21:48:00,
2013-06-27 15:54:00,84.3,51.2,29.94,WSW,250,1.0,1.4,32,0.00,CLR,SKC,0.01,WeatherDisplay:10.37,2013-06-27 21:54:00,
2013-06-27 16:00:00,84.6,48.8,29.94,West,269,3.0,3.0,29,0.00,CLR,SKC,0.01,WeatherDisplay:10.37,2013-06-27 22:00:00,
2013-06-27 16:05:00,84.9,50.9,29.94,SSE,167,4.6,4.6,31,0.00,CLR,SKC,0.01,WeatherDisplay:10.37,2013-06-27 22:05:00,
2013-06-27 16:10:00,84.8,48.1,29.94,SSE,168,3.5,3.5,28,0.00,CLR,SKC,0.01,WeatherDisplay:10.37,2013-06-27 22:10:00,
2013-06-27 16:16:00,85.2,47.4,29.94,West,273,4.6,4.6,27,0.00,CLR,SKC,0.01,WeatherDisplay:10.37,2013-06-27 22:16:00,
2013-06-27 16:22:00,85.4,47.6,29.94,WSW,250,6.9,6.9,27,0.00,CLR,SKC,0.01,WeatherDisplay:10.37,2013-06-27 22:22:00,
2013-06-27 16:28:00,85.4,46.6,29.93,South,179,4.0,4.0,26,0.00,CLR,SKC,0.01,WeatherDisplay:10.37,2013-06-27 22:28:00,
2013-06-27 16:33:00,85.2,46.4,29.94,WSW,246,3.5,3.5,26,0.00,CLR,SKC,0.01,WeatherDisplay:10.37,2013-06-27 22:33:00,
2013-06-27 16:38:00,85.3,49.4,29.93,WSW,244,3.5,3.5,29,0.00,CLR,SKC,0.01,WeatherDisplay:10.37,2013-06-27 22:38:00,
2013-06-27 16:43:00,85.2,49.4,29.94,SW,231,4.0,4.0,29,0.00,CLR,SKC,0.01,WeatherDisplay:10.37,2013-06-27 22:43:00,
2013-06-27 16:48:00,85.0,47.3,29.94,SW,215,2.3,2.3,27,0.00,CLR,SKC,0.01,WeatherDisplay:10.37,2013-06-27 22:48:00,
2013-06-27 16:53:00,85.4,49.5,29.94,SSW,208,1.1,0.0,29,0.00,CLR,SKC,0.01,WeatherDisplay:10.37,2013-06-27 22:53:00,
2013-06-27 16:58:00,85.8,51.7,29.94,West,280,4.0,4.0,31,0.00,CLR,SKC,0.01,WeatherDisplay:10.37,2013-06-27 22:58:00,
2013-06-27 17:03:00,85.7,54.9,29.93,ENE,63,1.1,1.1,35,0.00,CLR,SKC,0.01,WeatherDisplay:10.37,2013-06-27 23:03:00,
2013-06-27 17:08:00,85.3,53.8,29.94,NE,38,3.5,3.5,34,0.00,CLR,SKC,0.01,WeatherDisplay:10.37,2013-06-27 23:08:00,
2013-06-27 17:14:00,84.5,54.6,29.93,NE,38,2.3,2.3,36,0.00,CLR,SKC,0.01,WeatherDisplay:10.37,2013-06-27 23:14:00,
2013-06-27 17:19:00,84.1,53.5,29.93,NE,38,2.3,2.3,35,0.00,CLR,SKC,0.01,WeatherDisplay:10.37,2013-06-27 23:19:00,
2013-06-27 17:24:00,83.5,53.0,29.93,NE,46,2.3,2.3,35,0.00,CLR,SKC,0.01,WeatherDisplay:10.37,2013-06-27 23:24:00,
2013-06-27 17:29:00,83.2,54.2,29.94,NE,46,2.3,2.3,37,0.00,CLR,SKC,0.01,WeatherDisplay:10.37,2013-06-27 23:29:00,
2013-06-27 17:34:00,83.1,54.1,29.93,NE,48,1.1,1.1,37,0.00,CLR,SKC,0.01,WeatherDisplay:10.37,2013-06-27 23:34:00,
2013-06-27 17:38:00,83.0,54.0,29.93,NE,48,0.0,0.0,37,0.00,CLR,SKC,0.01,WeatherDisplay:10.37,2013-06-27 23:38:00,
2013-06-27 17:43:00,82.7,54.5,29.93,NE,48,2.3,2.3,38,0.00,CLR,SKC,0.01,WeatherDisplay:10.37,2013-06-27 23:43:00,
2013-06-27 17:48:00,82.3,54.9,29.93,NE,48,2.3,2.3,39,0.00,CLR,SKC,0.01,WeatherDisplay:10.37,2013-06-27 23:48:00,
2013-06-27 17:53:00,82.1,54.7,29.93,NE,48,2.3,2.3,39,0.00,CLR,SKC,0.01,WeatherDisplay:10.37,2013-06-27 23:53:00,
2013-06-27 17:58:00,82.0,55.3,29.93,NE,48,2.3,2.3,40,0.00,CLR,SKC,0.01,WeatherDisplay:10.37,2013-06-27 23:58:00,
2013-06-27 18:03:00,82.0,53.9,29.93,NE,48,1.1,1.1,38,0.00,CLR,SKC,0.01,WeatherDisplay:10.37,2013-06-28 00:03:00,
2013-06-27 18:08:00,81.9,55.2,29.93,NE,48,1.1,1.1,40,0.00,CLR,SKC,0.01,WeatherDisplay:10.37,2013-06-28 00:08:00,
2013-06-27 18:14:00,82.0,55.3,29.93,NE,48,0.0,2.0,40,0.00,CLR,SKC,0.01,WeatherDisplay:10.37,2013-06-28 00:14:00,
2013-06-27 18:19:00,82.1,55.4,29.93,NE,48,0.0,2.0,40,0.00,CLR,SKC,0.01,WeatherDisplay:10.37,2013-06-28 00:19:00,
2013-06-27 18:24:00,82.1,55.4,29.93,NE,48,1.1,1.1,40,0.00,CLR,SKC,0.01,WeatherDisplay:10.37,2013-06-28 00:24:00,
2013-06-27 18:31:00,81.9,53.8,29.93,East,86,1.1,1.1,38,0.00,CLR,SKC,0.01,WeatherDisplay:10.37,2013-06-28 00:31:00,
2013-06-27 18:36:00,81.9,54.5,29.93,East,82,0.0,0.0,39,0.00,CLR,SKC,0.01,WeatherDisplay:10.37,2013-06-28 00:36:00,
2013-06-27 18:41:00,81.7,55.7,29.92,East,82,2.3,2.3,41,0.00,CLR,SKC,0.01,WeatherDisplay:10.37,2013-06-28 00:41:00,
2013-06-27 18:47:00,81.5,54.8,29.92,East,82,0.0,0.0,40,0.00,CLR,SKC,0.01,WeatherDisplay:10.37,2013-06-28 00:47:00,
2013-06-27 18:52:00,81.3,56.0,29.92,East,82,0.0,0.0,42,0.00,CLR,SKC,0.01,WeatherDisplay:10.37,2013-06-28 00:52:00,
2013-06-27 18:57:00,81.2,54.6,29.92,East,82,1.1,0.0,40,0.00,CLR,SKC,0.01,WeatherDisplay:10.37,2013-06-28 00:57:00,
2013-06-27 19:02:00,81.3,55.3,29.92,East,82,0.0,0.0,41,0.00,CLR,SKC,0.01,WeatherDisplay:10.37,2013-06-28 01:02:00,
2013-06-27 19:08:00,81.1,54.5,29.92,East,82,0.0,0.0,40,0.00,CLR,SKC,0.01,WeatherDisplay:10.37,2013-06-28 01:08:00,
2013-06-27 19:13:00,80.8,54.2,29.92,East,82,1.1,1.1,40,0.00,CLR,SKC,0.01,WeatherDisplay:10.37,2013-06-28 01:13:00,
2013-06-27 19:19:00,80.5,54.0,29.92,East,82,0.0,1.0,40,0.00,CLR,SKC,0.01,WeatherDisplay:10.37,2013-06-28 01:19:00,
2013-06-27 19:25:00,80.3,55.1,29.92,East,82,0.0,0.0,42,0.00,CLR,SKC,0.01,WeatherDisplay:10.37,2013-06-28 01:25:00,
2013-06-27 19:30:00,80.1,54.9,29.92,East,82,0.0,0.0,42,0.00,CLR,SKC,0.01,WeatherDisplay:10.37,2013-06-28 01:30:00,
2013-06-27 19:36:00,79.8,55.9,29.92,East,82,0.0,0.0,44,0.00,CLR,SKC,0.01,WeatherDisplay:10.37,2013-06-28 01:36:00,
2013-06-27 19:41:00,79.5,56.3,29.92,East,82,0.0,0.0,45,0.00,CLR,SKC,0.01,WeatherDisplay:10.37,2013-06-28 01:41:00,
2013-06-27 19:47:00,79.4,56.2,29.92,East,82,0.0,0.0,45,0.00,CLR,SKC,0.01,WeatherDisplay:10.37,2013-06-28 01:47:00,
2013-06-27 19:54:00,79.3,57.9,29.92,East,82,0.0,0.0,48,0.00,CLR,SKC,0.01,WeatherDisplay:10.37,2013-06-28 01:54:00,
2013-06-27 19:59:00,78.8,56.9,29.92,East,82,0.0,0.0,47,0.00,CLR,SKC,0.01,WeatherDisplay:10.37,2013-06-28 01:59:00,
2013-06-27 20:05:00,78.1,56.8,29.93,East,82,0.0,0.0,48,0.00,CLR,SKC,0.01,WeatherDisplay:10.37,2013-06-28 02:05:00,
2013-06-27 20:10:00,77.6,57.5,29.92,East,82,0.0,0.0,50,0.00,CLR,SKC,0.01,WeatherDisplay:10.37,2013-06-28 02:10:00,
2013-06-27 20:15:00,76.9,57.4,29.92,East,82,0.0,0.0,51,0.00,CLR,SKC,0.01,WeatherDisplay:10.37,2013-06-28 02:15:00,
2013-06-27 20:21:00,76.0,57.6,29.93,East,82,0.0,0.0,53,0.00,CLR,SKC,0.01,WeatherDisplay:10.37,2013-06-28 02:21:00,
2013-06-27 20:26:00,75.3,58.5,29.93,East,82,0.0,0.0,56,0.00,CLR,SKC,0.01,WeatherDisplay:10.37,2013-06-28 02:26:00,
2013-06-27 20:31:00,74.0,58.3,29.93,East,82,0.0,0.0,58,0.00,CLR,SKC,0.01,WeatherDisplay:10.37,2013-06-28 02:31:00,
2013-06-27 20:36:00,72.8,59.0,29.93,East,82,0.0,0.0,62,0.00,CLR,SKC,0.01,WeatherDisplay:10.37,2013-06-28 02:36:00,
2013-06-27 20:42:00,72.1,57.9,29.93,East,82,0.0,0.0,61,0.00,CLR,SKC,0.01,WeatherDisplay:10.37,2013-06-28 02:42:00,
2013-06-27 20:47:00,71.5,59.1,29.93,East,82,0.0,0.0,65,0.00,CLR,SKC,0.01,WeatherDisplay:10.37,2013-06-28 02:47:00,
2013-06-27 20:53:00,70.7,59.2,29.93,East,82,0.0,0.0,67,0.00,CLR,SKC,0.01,WeatherDisplay:10.37,2013-06-28 02:53:00,
2013-06-27 20:58:00,69.6,58.2,29.93,East,82,0.0,0.0,67,0.00,CLR,SKC,0.01,WeatherDisplay:10.37,2013-06-28 02:58:00,
2013-06-27 21:03:00,68.9,56.6,29.93,East,82,0.0,0.0,65,0.00,CLR,SKC,0.01,WeatherDisplay:10.37,2013-06-28 03:03:00,
2013-06-27 21:08:00,68.5,57.1,29.94,NW,321,2.3,2.3,67,0.00,CLR,SKC,0.01,WeatherDisplay:10.37,2013-06-28 03:08:00,
2013-06-27 21:14:00,68.2,57.2,29.94,NW,321,0.0,0.0,68,0.00,CLR,SKC,0.01,WeatherDisplay:10.37,2013-06-28 03:14:00,
2013-06-27 21:19:00,67.5,56.6,29.94,NW,319,0.0,0.0,68,0.00,CLR,SKC,0.01,WeatherDisplay:10.37,2013-06-28 03:19:00,
2013-06-27 21:25:00,67.0,55.7,29.94,NW,319,1.1,1.1,67,0.00,CLR,SKC,0.01,WeatherDisplay:10.37,2013-06-28 03:25:00,
2013-06-27 21:30:00,66.8,56.7,29.95,NW,319,0.0,0.0,70,0.00,CLR,SKC,0.01,WeatherDisplay:10.37,2013-06-28 03:30:00,
2013-06-27 21:35:00,66.6,56.1,29.95,NW,319,1.1,1.1,69,0.00,CLR,SKC,0.01,WeatherDisplay:10.37,2013-06-28 03:35:00,
2013-06-27 21:42:00,66.3,55.4,29.95,West,263,1.1,1.1,68,0.00,CLR,SKC,0.01,WeatherDisplay:10.37,2013-06-28 03:42:00,
2013-06-27 21:47:00,66.0,55.9,29.96,West,263,0.0,0.0,70,0.00,CLR,SKC,0.01,WeatherDisplay:10.37,2013-06-28 03:47:00,
2013-06-27 21:53:00,65.6,55.9,29.96,West,261,1.1,0.0,71,0.00,CLR,SKC,0.01,WeatherDisplay:10.37,2013-06-28 03:53:00,
2013-06-27 21:58:00,65.5,55.8,29.97,West,261,0.0,0.0,71,0.00,CLR,SKC,0.01,WeatherDisplay:10.37,2013-06-28 03:58:00,
2013-06-27 22:01:00,65.3,55.7,29.97,West,261,0.0,0.0,71,0.00,CLR,SKC,0.01,WeatherDisplay:10.37,2013-06-28 04:01:00,
2013-06-27 22:02:00,65.2,55.6,29.97,West,261,0.0,0.0,71,0.00,CLR,SKC,0.01,WeatherDisplay:10.37,2013-06-28 04:02:00,
2013-06-27 22:03:00,65.2,55.2,29.97,West,261,0.0,0.0,70,0.00,CLR,SKC,0.01,WeatherDisplay:10.37,2013-06-28 04:03:00,
2013-06-27 22:04:00,65.2,55.2,29.97,West,261,0.0,1.0,70,0.00,CLR,SKC,0.01,WeatherDisplay:10.37,2013-06-28 04:04:00,
2013-06-27 22:09:00,65.2,55.6,29.97,West,269,0.0,2.0,71,0.00,CLR,SKC,0.01,WeatherDisplay:10.37,2013-06-28 04:09:00,
2013-06-27 22:10:00,65.1,54.7,29.97,NW,304,2.3,2.3,69,0.00,CLR,SKC,0.01,WeatherDisplay:10.37,2013-06-28 04:10:00,
2013-06-27 22:15:00,65.1,54.3,29.98,NW,304,1.1,0.0,68,0.00,CLR,SKC,0.01,WeatherDisplay:10.37,2013-06-28 04:15:00,
2013-06-27 22:20:00,65.2,53.6,29.98,NW,304,0.0,0.0,66,0.00,CLR,SKC,0.01,WeatherDisplay:10.37,2013-06-28 04:20:00,
2013-06-27 22:24:00,65.2,53.1,29.98,NW,318,1.0,1.0,65,0.00,CLR,SKC,0.01,WeatherDisplay:10.37,2013-06-28 04:24:00,
2013-06-27 22:29:00,65.2,54.0,29.98,NW,318,1.0,1.0,67,0.00,CLR,SKC,0.01,WeatherDisplay:10.37,2013-06-28 04:29:00,
2013-06-27 22:34:00,65.0,52.5,29.98,NW,318,0.0,0.0,64,0.00,CLR,SKC,0.01,WeatherDisplay:10.37,2013-06-28 04:34:00,
2013-06-27 22:39:00,65.0,53.4,29.98,NW,319,0.0,0.0,66,0.00,CLR,SKC,0.01,WeatherDisplay:10.37,2013-06-28 04:39:00,
2013-06-27 22:44:00,65.1,53.5,29.98,NNW,338,0.0,0.0,66,0.00,CLR,SKC,0.01,WeatherDisplay:10.37,2013-06-28 04:44:00,
2013-06-27 22:49:00,65.2,53.1,29.98,NNW,338,0.0,0.0,65,0.00,CLR,SKC,0.01,WeatherDisplay:10.37,2013-06-28 04:49:00,
2013-06-27 22:54:00,65.0,51.7,29.99,NNW,338,2.3,0.0,62,0.00,CLR,SKC,0.01,WeatherDisplay:10.37,2013-06-28 04:54:00,
2013-06-27 23:00:00,64.4,52.4,29.99,NNW,328,0.0,0.2,65,0.00,CLR,SKC,0.01,WeatherDisplay:10.37,2013-06-28 05:00:00,
2013-06-27 23:06:00,64.7,53.1,29.99,WNW,296,1.1,1.1,66,0.00,CLR,SKC,0.01,WeatherDisplay:10.37,2013-06-28 05:06:00,
2013-06-27 23:11:00,64.8,51.5,29.99,WNW,296,1.0,1.0,62,0.00,CLR,SKC,0.01,WeatherDisplay:10.37,2013-06-28 05:11:00,
2013-06-27 23:16:00,65.6,51.8,29.99,WNW,296,1.1,0.0,61,0.00,CLR,SKC,0.01,WeatherDisplay:10.37,2013-06-28 05:16:00,
2013-06-27 23:21:00,65.8,51.1,29.99,WNW,296,1.1,1.1,59,0.00,CLR,SKC,0.01,WeatherDisplay:10.37,2013-06-28 05:21:00,
2013-06-27 23:26:00,65.9,52.1,29.99,WNW,296,0.0,0.0,61,0.00,CLR,SKC,0.01,WeatherDisplay:10.37,2013-06-28 05:26:00,
2013-06-27 23:31:00,65.8,52.0,29.99,WNW,296,1.1,1.1,61,0.00,CLR,SKC,0.01,WeatherDisplay:10.37,2013-06-28 05:31:00,
2013-06-27 23:37:00,65.5,52.1,29.99,WNW,296,1.1,0.0,62,0.00,CLR,SKC,0.01,WeatherDisplay:10.37,2013-06-28 05:37:00,
2013-06-27 23:42:00,65.3,51.9,29.99,WNW,296,0.0,0.0,62,0.00,CLR,SKC,0.01,WeatherDisplay:10.37,2013-06-28 05:42:00,
2013-06-27 23:47:00,65.4,50.2,29.99,WNW,296,0.0,0.0,58,0.00,CLR,SKC,0.01,WeatherDisplay:10.37,2013-06-28 05:47:00,
2013-06-27 23:52:00,65.7,51.4,29.99,WNW,296,0.0,0.0,60,0.00,CLR,SKC,0.01,WeatherDisplay:10.37,2013-06-28 05:52:00,
2013-06-27 23:57:00,65.8,51.1,29.99,WNW,296,0.0,0.0,59,0.00,CLR,SKC,0.01,WeatherDisplay:10.37,2013-06-28 05:57:00,